createdAt,value
2022-12-27T00:01:46.380Z,18.25
2022-12-27T00:04:50.545Z,18.00
2022-12-27T00:07:53.209Z,17.25
2022-12-27T00:10:56.241Z,15.25
2022-12-27T00:14:03.190Z,15.50
2022-12-27T00:17:06.997Z,20.00
2022-12-27T00:20:12.042Z,17.00
2022-12-27T00:23:15.167Z,17.00
2022-12-27T00:26:23.485Z,19.50
2022-12-27T00:29:27.149Z,18.00
2022-12-27T00:32:29.804Z,19.75
2022-12-27T00:35:32.820Z,15.50
2022-12-27T00:38:36.107Z,18.00
2022-12-27T00:41:39.097Z,18.00
2022-12-27T00:44:43.538Z,18.00
2022-12-27T00:47:48.653Z,19.00
2022-12-27T00:50:51.636Z,18.00
2022-12-27T00:53:56.136Z,15.00
2022-12-27T00:56:58.768Z,17.00
2022-12-27T01:00:07.924Z,15.00
2022-12-27T01:03:12.627Z,17.00
2022-12-27T01:06:18.417Z,18.00
2022-12-27T01:09:21.066Z,17.75
2022-12-27T01:12:24.675Z,14.75
2022-12-27T01:15:27.481Z,15.00
2022-12-27T01:18:30.744Z,18.00
2022-12-27T01:21:33.487Z,16.50
2022-12-27T01:24:36.828Z,15.00
2022-12-27T01:27:39.652Z,16.00
2022-12-27T01:30:42.742Z,16.75
2022-12-27T01:33:45.650Z,15.25
2022-12-27T01:36:48.789Z,15.50
2022-12-27T01:39:51.398Z,16.25
2022-12-27T01:42:55.900Z,15.25
2022-12-27T01:45:59.028Z,17.75
2022-12-27T01:49:05.113Z,14.25
2022-12-27T01:52:10.362Z,15.00
2022-12-27T01:55:47.052Z,14.75
2022-12-27T01:58:59.784Z,15.50
2022-12-27T02:02:04.355Z,14.50
2022-12-27T02:05:07.663Z,15.25
2022-12-27T02:08:33.133Z,13.75
2022-12-27T02:11:52.335Z,12.00
2022-12-27T02:14:56.476Z,15.25
2022-12-27T02:17:59.157Z,14.50
2022-12-27T02:21:11.716Z,14.00
2022-12-27T02:24:14.320Z,13.75
2022-12-27T02:27:36.079Z,15.00
2022-12-27T02:30:38.914Z,13.00
2022-12-27T02:33:45.974Z,17.00
2022-12-27T02:36:49.994Z,16.25
2022-12-27T02:39:54.471Z,15.00
2022-12-27T02:43:15.845Z,15.75
2022-12-27T02:46:46.037Z,18.50
2022-12-27T02:50:07.216Z,18.00
2022-12-27T02:53:40.918Z,5.25
2022-12-27T02:57:10.016Z,2.00
2022-12-27T03:00:40.669Z,2.00
2022-12-27T03:04:12.107Z,1.00
2022-12-27T03:07:39.156Z,0.00
2022-12-27T03:11:10.411Z,1.00
2022-12-27T03:14:40.181Z,0.50
2022-12-27T03:17:52.571Z,0.00
2022-12-27T03:21:16.821Z,1.00
2022-12-27T03:24:41.742Z,0.00
2022-12-27T03:28:06.830Z,1.00
2022-12-27T03:31:42.097Z,0.00
2022-12-27T03:34:51.550Z,0.00
2022-12-27T03:38:04.330Z,1.00
2022-12-27T03:41:31.078Z,0.50
2022-12-27T03:44:34.938Z,1.00
2022-12-27T03:47:43.687Z,0.00
2022-12-27T03:51:05.366Z,0.00
2022-12-27T03:54:26.603Z,0.00
2022-12-27T03:57:30.210Z,0.00
2022-12-27T04:00:33.638Z,1.00
2022-12-27T04:03:36.278Z,0.00
2022-12-27T04:06:39.598Z,0.00
2022-12-27T04:10:01.853Z,0.00
2022-12-27T04:13:23.713Z,1.00
2022-12-27T04:16:44.878Z,0.00
2022-12-27T04:20:06.369Z,0.00
2022-12-27T04:23:27.859Z,0.00
2022-12-27T04:26:49.164Z,0.00
2022-12-27T04:30:10.350Z,0.00
2022-12-27T04:33:31.970Z,0.00
2022-12-27T04:36:34.686Z,0.75
2022-12-27T04:39:37.708Z,0.00
2022-12-27T04:42:58.789Z,0.00
2022-12-27T04:46:20.440Z,0.00
2022-12-27T04:49:43.944Z,0.00
2022-12-27T04:53:06.740Z,0.00
2022-12-27T04:56:09.472Z,0.00
2022-12-27T04:59:31.007Z,0.00
2022-12-27T05:02:34.208Z,0.25
2022-12-27T05:05:38.652Z,0.00
2022-12-27T05:09:00.154Z,0.00
2022-12-27T05:12:21.915Z,0.00
2022-12-27T05:15:24.436Z,0.00
2022-12-27T05:18:28.109Z,0.50
2022-12-27T05:21:31.018Z,0.00
2022-12-27T05:24:52.478Z,0.00
2022-12-27T05:27:55.976Z,0.00
2022-12-27T05:31:06.887Z,0.00
2022-12-27T05:34:09.610Z,1.00
2022-12-27T05:37:13.933Z,1.00
2022-12-27T05:40:17.004Z,1.00
2022-12-27T05:43:20.143Z,0.00
2022-12-27T05:46:23.171Z,1.00
2022-12-27T05:49:26.529Z,0.00
2022-12-27T05:52:33.081Z,1.00
2022-12-27T05:55:40.145Z,0.00
2022-12-27T05:58:43.527Z,0.00
2022-12-27T06:01:47.357Z,2.00
2022-12-27T06:04:50.090Z,0.33
2022-12-27T06:07:53.455Z,1.00
2022-12-27T06:11:07.199Z,4.00
2022-12-27T06:14:10.435Z,4.00
2022-12-27T06:17:13.168Z,2.00
2022-12-27T06:20:16.312Z,1.00
2022-12-27T06:23:19.017Z,1.67
2022-12-27T06:26:25.396Z,1.00
2022-12-27T06:29:28.103Z,2.00
2022-12-27T06:32:32.444Z,2.00
2022-12-27T06:35:35.063Z,4.00
2022-12-27T06:38:38.875Z,1.00
2022-12-27T06:41:41.576Z,2.00
2022-12-27T06:44:44.949Z,2.00
2022-12-27T06:47:47.611Z,2.00
2022-12-27T06:50:51.101Z,2.67
2022-12-27T06:53:53.782Z,4.00
2022-12-27T06:56:57.420Z,4.00
2022-12-27T07:00:00.167Z,5.00
2022-12-27T07:03:04.396Z,6.33
2022-12-27T07:06:08.670Z,4.00
2022-12-27T07:09:12.210Z,2.67
2022-12-27T07:12:14.933Z,2.00
2022-12-27T07:15:18.200Z,1.67
2022-12-27T07:18:20.768Z,2.33
2022-12-27T07:21:25.956Z,2.33
2022-12-27T07:24:28.504Z,2.33
2022-12-27T07:27:34.949Z,1.33
2022-12-27T07:30:40.357Z,2.00
2022-12-27T07:33:44.297Z,1.33
2022-12-27T07:36:47.272Z,2.00
2022-12-27T07:39:50.320Z,2.33
2022-12-27T07:42:53.028Z,0.67
2022-12-27T07:45:56.140Z,1.67
2022-12-27T07:48:59.363Z,2.00
2022-12-27T07:52:03.055Z,2.00
2022-12-27T07:55:06.202Z,1.67
2022-12-27T07:58:09.599Z,2.00
2022-12-27T08:01:13.563Z,2.00
2022-12-27T08:04:17.264Z,2.00
2022-12-27T08:07:20.540Z,2.00
2022-12-27T08:10:23.970Z,5.00
2022-12-27T08:13:27.285Z,4.00
2022-12-27T08:16:31.155Z,2.00
2022-12-27T08:19:34.643Z,4.00
2022-12-27T08:22:38.240Z,2.00
2022-12-27T08:25:44.841Z,4.67
2022-12-27T08:28:52.758Z,7.00
2022-12-27T08:31:55.399Z,5.00
2022-12-27T08:35:17.922Z,0.00
2022-12-27T08:38:21.632Z,4.33
2022-12-27T08:41:25.028Z,4.00
2022-12-27T08:44:27.785Z,5.00
2022-12-27T08:47:31.061Z,5.67
2022-12-27T08:50:33.892Z,2.00
2022-12-27T08:53:37.077Z,4.33
2022-12-27T08:56:39.850Z,4.00
2022-12-27T08:59:43.458Z,8.00
2022-12-27T09:02:47.302Z,9.33
2022-12-27T09:05:50.760Z,11.00
2022-12-27T09:08:54.983Z,9.33
2022-12-27T09:11:58.090Z,8.00
2022-12-27T09:15:00.834Z,8.00
2022-12-27T09:18:05.014Z,9.33
2022-12-27T09:21:11.753Z,5.00
2022-12-27T09:24:15.401Z,7.00
2022-12-27T09:27:19.532Z,5.67
2022-12-27T09:30:23.207Z,8.00
2022-12-27T09:33:26.215Z,4.67
2022-12-27T09:36:30.395Z,5.00
2022-12-27T09:39:33.250Z,5.00
2022-12-27T09:43:16.228Z,5.00
2022-12-27T09:46:26.975Z,7.33
2022-12-27T09:49:38.531Z,7.00
2022-12-27T09:52:50.319Z,5.67
2022-12-27T09:55:56.020Z,5.00
2022-12-27T09:59:06.319Z,7.00
2022-12-27T10:02:27.385Z,4.00
2022-12-27T10:05:34.601Z,4.00
2022-12-27T10:09:21.294Z,5.00
2022-12-27T10:12:42.700Z,7.00
2022-12-27T10:15:54.657Z,4.33
2022-12-27T10:19:42.520Z,5.67
2022-12-27T10:23:06.877Z,2.67
2022-12-27T10:26:18.231Z,5.67
2022-12-27T10:29:23.683Z,5.00
2022-12-27T10:32:26.936Z,4.00
2022-12-27T10:35:31.030Z,4.00
2022-12-27T10:38:35.467Z,4.00
2022-12-27T10:41:57.378Z,2.00
2022-12-27T10:45:36.575Z,2.00
2022-12-27T10:49:11.305Z,4.00
2022-12-27T10:52:19.395Z,5.00
2022-12-27T10:55:33.647Z,5.00
2022-12-27T10:58:40.935Z,4.33
2022-12-27T11:01:50.281Z,5.00
2022-12-27T11:04:58.785Z,5.00
2022-12-27T11:08:19.793Z,5.00
2022-12-27T11:11:25.313Z,5.00
2022-12-27T11:14:28.995Z,5.00
2022-12-27T11:18:07.132Z,4.00
2022-12-27T11:21:21.214Z,3.50
2022-12-27T11:24:28.622Z,2.50
2022-12-27T11:27:33.248Z,4.75
2022-12-27T11:30:39.920Z,5.00
2022-12-27T11:33:47.923Z,4.00
2022-12-27T11:36:53.980Z,4.25
2022-12-27T11:40:27.908Z,5.00
2022-12-27T11:43:38.232Z,5.00
2022-12-27T11:46:46.278Z,4.75
2022-12-27T11:49:53.945Z,4.33
2022-12-27T11:53:12.674Z,4.50
2022-12-27T11:56:20.085Z,4.00
2022-12-27T11:59:32.070Z,5.00
2022-12-27T12:02:50.311Z,4.00
2022-12-27T12:06:31.389Z,4.00
2022-12-27T12:09:42.939Z,4.00
2022-12-27T12:12:56.956Z,4.00
2022-12-27T12:16:53.337Z,4.00
2022-12-27T12:20:11.136Z,4.33
2022-12-27T12:23:33.481Z,4.00
2022-12-27T12:27:11.396Z,3.50
2022-12-27T12:30:46.139Z,5.00
2022-12-27T12:33:56.486Z,5.00
2022-12-27T12:37:14.167Z,5.00
2022-12-27T12:40:55.016Z,4.00
2022-12-27T12:44:38.095Z,5.67
2022-12-27T12:48:21.032Z,7.00
2022-12-27T12:51:52.905Z,4.00
2022-12-27T12:55:03.603Z,5.67
2022-12-27T12:58:18.461Z,7.00
2022-12-27T13:01:50.642Z,7.67
2022-12-27T13:05:24.770Z,7.00
2022-12-27T13:08:47.473Z,7.67
2022-12-27T13:12:05.668Z,8.00
2022-12-27T13:15:32.065Z,7.00
2022-12-27T13:18:39.488Z,7.00
2022-12-27T13:21:48.680Z,10.00
2022-12-27T13:25:32.153Z,12.33
2022-12-27T13:28:45.475Z,11.00
2022-12-27T13:32:40.117Z,11.00
2022-12-27T13:36:20.546Z,10.67
2022-12-27T13:39:38.367Z,11.67
2022-12-27T13:42:48.725Z,10.33
2022-12-27T13:46:09.513Z,11.67
2022-12-27T13:49:34.681Z,11.67
2022-12-27T13:52:59.803Z,12.33
2022-12-27T13:56:52.971Z,10.33
2022-12-27T14:00:17.609Z,11.00
2022-12-27T14:03:49.079Z,10.67
2022-12-27T14:07:08.106Z,8.67
2022-12-27T14:10:28.398Z,10.00
2022-12-27T14:13:36.812Z,11.00
2022-12-27T14:17:13.499Z,9.33
2022-12-27T14:20:44.865Z,10.00
2022-12-27T14:24:19.525Z,9.33
2022-12-27T14:28:04.133Z,7.00
2022-12-27T14:31:22.970Z,8.00
2022-12-27T14:34:59.302Z,8.33
2022-12-27T14:38:24.387Z,10.00
2022-12-27T14:41:48.991Z,8.00
2022-12-27T14:45:10.886Z,8.67
2022-12-27T14:48:33.576Z,11.00
2022-12-27T14:52:06.096Z,10.00
2022-12-27T14:55:24.274Z,8.00
2022-12-27T14:59:25.865Z,10.00
2022-12-27T15:02:43.349Z,10.00
2022-12-27T15:06:08.562Z,10.33
2022-12-27T15:09:26.291Z,8.00
2022-12-27T15:12:51.777Z,12.33
2022-12-27T15:16:15.588Z,11.00
2022-12-27T15:19:43.499Z,10.33
2022-12-27T15:23:26.203Z,10.33
2022-12-27T15:26:50.713Z,10.00
2022-12-27T15:30:02.475Z,11.00
2022-12-27T15:33:32.617Z,10.00
2022-12-27T15:36:44.503Z,10.33
2022-12-27T15:39:49.159Z,13.00
2022-12-27T15:43:13.125Z,11.00
2022-12-27T15:46:41.009Z,11.00
2022-12-27T15:50:20.920Z,10.33
2022-12-27T15:53:39.158Z,10.33
2022-12-27T15:57:03.386Z,10.00
2022-12-27T16:00:14.931Z,10.00
2022-12-27T16:03:36.755Z,11.00
2022-12-27T16:06:50.628Z,10.00
2022-12-27T16:09:54.000Z,10.00
2022-12-27T16:13:09.467Z,10.33
2022-12-27T16:16:39.164Z,13.00
2022-12-27T16:19:48.337Z,7.33
2022-12-27T16:22:52.592Z,8.67
2022-12-27T16:26:17.569Z,9.33
2022-12-27T16:29:23.617Z,8.00
2022-12-27T16:32:28.773Z,10.00
2022-12-27T16:35:33.116Z,9.33
2022-12-27T16:38:46.039Z,11.00
2022-12-27T16:41:57.497Z,8.00
2022-12-27T16:45:05.958Z,8.00
2022-12-27T16:48:42.226Z,9.33
2022-12-27T16:52:07.319Z,8.00
2022-12-27T16:55:15.992Z,8.00
2022-12-27T16:58:19.055Z,8.00
2022-12-27T17:01:50.840Z,10.00
2022-12-27T17:04:59.509Z,8.00
2022-12-27T17:08:02.265Z,7.67
2022-12-27T17:11:28.523Z,10.00
2022-12-27T17:14:38.725Z,8.67
2022-12-27T17:17:44.661Z,10.00
2022-12-27T17:21:02.514Z,8.67
2022-12-27T17:24:07.629Z,8.67
2022-12-27T17:27:14.188Z,9.33
2022-12-27T17:30:26.919Z,10.00
2022-12-27T17:33:47.819Z,11.00
2022-12-27T17:37:05.456Z,11.00
2022-12-27T17:40:20.199Z,10.00
2022-12-27T17:44:22.599Z,13.00
2022-12-27T17:47:43.892Z,10.67
2022-12-27T17:50:47.364Z,10.00
2022-12-27T17:54:10.658Z,8.00
2022-12-27T17:57:34.038Z,11.33
2022-12-27T18:00:44.216Z,11.00
2022-12-27T18:03:48.612Z,10.33
2022-12-27T18:06:58.598Z,11.00
2022-12-27T18:10:27.285Z,11.00
2022-12-27T18:13:36.813Z,11.00
2022-12-27T18:16:41.652Z,10.00
2022-12-27T18:19:44.830Z,10.00
2022-12-27T18:22:48.609Z,11.00
2022-12-27T18:25:55.659Z,10.00
2022-12-27T18:29:01.578Z,13.00
2022-12-27T18:32:09.432Z,8.67
2022-12-27T18:35:24.127Z,11.67
2022-12-27T18:38:33.117Z,11.00
2022-12-27T18:41:47.890Z,8.00
2022-12-27T18:45:34.150Z,11.00
2022-12-27T18:48:38.324Z,10.33
2022-12-27T18:51:44.837Z,12.33
2022-12-27T18:54:49.186Z,11.00
2022-12-27T18:58:06.715Z,11.00
2022-12-27T19:01:26.592Z,10.33
2022-12-27T19:04:32.510Z,11.00
2022-12-27T19:07:36.043Z,12.33
2022-12-27T19:10:47.901Z,10.00
2022-12-27T19:13:55.123Z,11.00
2022-12-27T19:16:59.523Z,11.00
2022-12-27T19:20:06.486Z,12.33
2022-12-27T19:23:50.141Z,10.00
2022-12-27T19:26:55.424Z,13.00
2022-12-27T19:29:58.956Z,10.67
2022-12-27T19:33:07.109Z,13.00
2022-12-27T19:36:10.765Z,11.33
2022-12-27T19:39:26.938Z,11.67
2022-12-27T19:42:32.449Z,10.00
2022-12-27T19:45:37.179Z,10.00
2022-12-27T19:48:41.357Z,8.00
2022-12-27T19:51:45.759Z,10.33
2022-12-27T19:54:50.949Z,10.00
2022-12-27T19:57:57.056Z,10.67
2022-12-27T20:01:00.560Z,10.00
2022-12-27T20:04:05.218Z,9.33
2022-12-27T20:07:16.954Z,10.00
2022-12-27T20:10:20.464Z,10.00
2022-12-27T20:13:24.530Z,8.00
2022-12-27T20:16:28.347Z,7.67
2022-12-27T20:19:31.410Z,9.33
2022-12-27T20:22:36.468Z,10.00
2022-12-27T20:25:43.936Z,10.00
2022-12-27T20:28:50.931Z,13.00
2022-12-27T20:31:53.775Z,10.33
2022-12-27T20:34:57.990Z,11.00
2022-12-27T20:38:01.050Z,9.33
2022-12-27T20:41:10.279Z,10.33
2022-12-27T20:44:15.215Z,10.33
2022-12-27T20:47:18.942Z,10.67
2022-12-27T20:50:21.776Z,11.00
2022-12-27T20:53:28.325Z,11.00
2022-12-27T20:56:31.587Z,10.67
2022-12-27T20:59:34.958Z,7.00
2022-12-27T21:02:40.467Z,11.00
2022-12-27T21:05:45.568Z,11.00
2022-12-27T21:08:55.924Z,10.00
2022-12-27T21:12:02.376Z,11.67
2022-12-27T21:15:08.738Z,8.00
2022-12-27T21:18:11.952Z,10.33
2022-12-27T21:21:19.411Z,7.00
2022-12-27T21:24:23.694Z,8.00
2022-12-27T21:27:26.582Z,8.00
2022-12-27T21:30:30.715Z,11.00
2022-12-27T21:33:35.547Z,7.33
2022-12-27T21:36:39.788Z,8.00
2022-12-27T21:39:42.522Z,7.00
2022-12-27T21:42:46.116Z,10.67
2022-12-27T21:45:48.876Z,7.00
2022-12-27T21:49:00.157Z,8.00
2022-12-27T21:52:04.056Z,8.00
2022-12-27T21:55:07.517Z,7.00
2022-12-27T21:58:10.566Z,7.33
2022-12-27T22:01:19.420Z,7.33
2022-12-27T22:04:22.235Z,8.00
2022-12-27T22:07:25.329Z,10.00
2022-12-27T22:10:27.967Z,9.33
2022-12-27T22:13:31.386Z,8.00
2022-12-27T22:16:36.770Z,7.00
2022-12-27T22:19:40.393Z,7.00
2022-12-27T22:22:43.277Z,7.67
2022-12-27T22:25:46.608Z,10.00
2022-12-27T22:28:49.987Z,9.33
2022-12-27T22:31:54.015Z,7.00
2022-12-27T22:34:56.739Z,8.00
2022-12-27T22:38:00.638Z,5.00
2022-12-27T22:41:26.673Z,8.00
2022-12-27T22:44:30.246Z,8.00
2022-12-27T22:47:33.584Z,8.00
2022-12-27T22:50:38.305Z,8.00
2022-12-27T22:53:41.280Z,8.00
2022-12-27T22:56:44.944Z,10.00
2022-12-27T22:59:47.564Z,7.33
2022-12-27T23:02:50.713Z,7.67
2022-12-27T23:06:00.664Z,8.00
2022-12-27T23:09:04.881Z,7.33
2022-12-27T23:12:07.510Z,7.33
2022-12-27T23:15:11.167Z,9.33
2022-12-27T23:18:13.894Z,7.33
2022-12-27T23:21:21.224Z,8.00
2022-12-27T23:24:26.690Z,8.00
2022-12-27T23:27:29.869Z,10.00
2022-12-27T23:30:32.681Z,9.33
2022-12-27T23:33:36.277Z,10.00
2022-12-27T23:36:39.170Z,8.00
2022-12-27T23:39:42.580Z,10.00
2022-12-27T23:42:45.465Z,8.67
2022-12-27T23:45:49.139Z,11.00
2022-12-27T23:48:52.349Z,10.00
2022-12-27T23:51:55.873Z,9.33
2022-12-27T23:54:58.885Z,11.00
2022-12-27T23:58:02.313Z,7.33
